Time;durP1;ratioP1;P1;durP2;ratioP2;P2;SDS_P1;SDS_P2;PMS_P1;PMS_P2;Temp;Humidity;BMP_temperature;BMP_pressure;BME280_temperature;BME280_humidity;BME280_pressure;Samples;Min_cycle;Max_cycle;Signal;HPM_P1;HPM_P2
2021/06/17 05:03:17;;;;;;;9.93;3.47;;;;;;;18.17;80.36;100552.28;127154;1089;104296;-79
2021/06/17 05:05:47;;;;;;;6.97;3.27;;;;;;;18.19;80.40;100545.20;126772;1093;104187;-79
2021/06/17 05:10:58;;;;;;;7.30;2.77;;;;;;;18.27;80.08;100559.40;126857;1089;104264;-79
2021/06/17 05:13:28;;;;;;;13.43;3.50;;;;;;;18.32;80.25;100560.33;126763;1089;104129;-79
2021/06/17 05:15:59;;;;;;;10.77;3.00;;;;;;;18.37;80.42;100557.70;126823;1089;104142;-81
2021/06/17 05:18:28;;;;;;;8.63;3.50;;;;;;;18.44;80.11;100563.92;126786;1092;104194;-79
2021/06/17 05:20:57;;;;;;;6.00;3.30;;;;;;;18.47;79.75;100564.81;126841;1089;104264;-80
2021/06/17 05:23:26;;;;;;;6.13;2.90;;;;;;;18.50;80.19;100559.51;126797;1092;104261;-80
2021/06/17 05:25:56;;;;;;;6.50;3.20;;;;;;;18.57;79.63;100556.88;126775;1089;104267;-78
2021/06/17 05:28:26;;;;;;;7.30;3.00;;;;;;;18.63;79.98;100556.91;126704;1092;104276;-77
2021/06/17 05:30:55;;;;;;;6.60;3.33;;;;;;;18.68;80.36;100553.39;126717;1089;104158;-79
2021/06/17 05:33:26;;;;;;;9.17;3.40;;;;;;;18.75;80.43;100558.72;126705;1089;104354;-78
2021/06/17 05:35:54;;;;;;;11.30;3.40;;;;;;;18.76;80.17;100550.76;126775;1090;104273;-79
2021/06/17 05:38:24;;;;;;;5.23;3.20;;;;;;;18.78;79.54;100548.10;126653;1090;104152;-78
2021/06/17 05:40:52;;;;;;;6.23;3.43;;;;;;;18.80;79.84;100548.98;126746;1093;104139;-78
2021/06/17 05:43:23;;;;;;;7.17;3.07;;;;;;;18.82;79.94;100542.80;126666;1089;104257;-79
2021/06/17 05:45:51;;;;;;;6.17;3.20;;;;;;;18.84;79.31;100537.48;126730;1093;104159;-77
2021/06/17 05:48:20;;;;;;;6.97;3.07;;;;;;;18.87;79.93;100540.19;126644;1093;104155;-77
2021/06/17 05:50:49;;;;;;;5.47;2.90;;;;;;;18.92;78.88;100538.41;126582;1089;104203;-77
2021/06/17 05:53:18;;;;;;;8.67;2.97;;;;;;;18.98;79.91;100551.72;126662;1093;104142;-79
2021/06/17 05:55:49;;;;;;;8.33;2.97;;;;;;;19.05;79.87;100555.27;126631;1089;104194;-78
2021/06/17 05:58:17;;;;;;;14.93;2.90;;;;;;;19.13;79.17;100565.92;126694;1089;104117;-78
2021/06/17 06:00:45;;;;;;;6.13;2.80;;;;;;;19.17;78.76;100560.61;126662;1090;104168;-76
2021/06/17 06:03:13;;;;;;;7.60;3.20;;;;;;;19.22;78.89;100555.30;126634;1089;104267;-80
2021/06/17 06:05:41;;;;;;;7.70;2.90;;;;;;;19.29;79.11;100557.09;126604;1092;104197;-78
2021/06/17 06:08:11;;;;;;;4.37;2.90;;;;;;;19.35;79.05;100561.51;126687;1089;104165;-79
2021/06/17 06:10:40;;;;;;;4.80;2.73;;;;;;;19.40;78.95;100557.97;126596;1093;104219;-80
2021/06/17 06:13:10;;;;;;;9.20;3.10;;;;;;;19.47;79.01;100565.96;126519;1090;104190;-78
2021/06/17 06:15:38;;;;;;;8.07;3.30;;;;;;;19.52;79.42;100564.17;126595;1089;104335;-78
2021/06/17 06:18:09;;;;;;;9.20;3.07;;;;;;;19.60;79.29;100572.16;126642;1089;104321;-80
2021/06/17 06:20:41;;;;;;;5.20;3.10;;;;;;;19.71;79.08;100578.36;126614;1089;104165;-80
2021/06/17 06:23:12;;;;;;;6.40;2.97;;;;;;;19.78;78.06;100579.30;126755;1089;104283;-80
2021/06/17 06:25:46;;;;;;;7.00;3.00;;;;;;;19.82;78.21;100565.98;126591;1092;104260;-79
2021/06/17 06:28:19;;;;;;;4.77;2.80;;;;;;;19.91;78.99;100575.71;126581;1090;104158;-80
2021/06/17 06:30:50;;;;;;;8.10;3.03;;;;;;;20.00;77.88;100564.17;126660;1093;104270;-78
2021/06/17 06:33:21;;;;;;;9.33;3.43;;;;;;;20.10;78.30;100555.25;126748;1089;104188;-78
2021/06/17 06:35:53;;;;;;;7.53;3.10;;;;;;;20.21;78.05;100557.88;126730;1089;104162;-79
2021/06/17 06:38:21;;;;;;;7.67;3.30;;;;;;;20.31;78.09;100548.11;126834;1089;104230;-80
2021/06/17 06:40:52;;;;;;;9.30;3.57;;;;;;;20.40;77.67;100553.41;126677;1089;104177;-80
2021/06/17 06:43:25;;;;;;;9.37;3.10;;;;;;;20.47;77.87;100545.37;126632;1090;104159;-78
2021/06/17 06:46:05;;;;;;;8.60;3.17;;;;;;;20.53;78.25;100549.78;126711;1087;104297;-78
2021/06/17 06:48:35;;;;;;;8.07;3.33;;;;;;;20.64;77.50;100560.39;126802;1089;104148;-77
2021/06/17 06:51:07;;;;;;;8.60;3.40;;;;;;;20.76;77.74;100562.16;126718;1089;104136;-79
2021/06/17 06:53:40;;;;;;;7.90;3.23;;;;;;;20.83;77.75;100567.45;126734;1090;104411;-79
2021/06/17 06:56:12;;;;;;;7.30;3.20;;;;;;;20.94;77.66;100561.15;126770;1093;104135;-81
2021/06/17 06:58:44;;;;;;;8.40;3.23;;;;;;;21.04;76.97;100562.87;126741;1093;104114;-80
2021/06/17 07:01:14;;;;;;;6.27;3.03;;;;;;;21.19;77.62;100567.20;126783;1089;104590;-78
2021/06/17 07:03:45;;;;;;;4.60;3.23;;;;;;;21.33;77.34;100559.10;126791;1093;104201;-79
2021/06/17 07:06:16;;;;;;;5.30;3.33;;;;;;;21.42;77.07;100563.50;126702;1089;104360;-79
2021/06/17 07:08:46;;;;;;;7.07;3.10;;;;;;;21.51;76.50;100564.33;126779;1090;104187;-79
2021/06/17 07:11:52;;;;;;;;;;;;;;;;;;;;;
2021/06/17 07:14:37;;;;;;;6.97;3.10;;;;;;;21.78;76.10;100569.45;126642;1089;104155;-79
2021/06/17 07:17:12;;;;;;;10.53;3.20;;;;;;;21.83;75.57;100559.59;126661;1089;120094;-78
2021/06/17 07:20:09;;;;;;;10.90;3.80;;;;;;;21.92;76.05;100559.50;126759;1090;104311;-80
2021/06/17 07:22:43;;;;;;;6.50;2.90;;;;;;;22.04;76.01;100564.72;126727;1089;104162;-79
2021/06/17 07:25:24;;;;;;;6.97;3.00;;;;;;;22.13;75.27;100566.42;126730;1089;104241;-78
2021/06/17 07:27:54;;;;;;;5.87;3.08;;;;;;;22.15;75.33;100551.25;126763;1089;104199;-79
2021/06/17 07:30:26;;;;;;;6.43;2.80;;;;;;;22.28;75.56;100556.45;126759;1089;104260;-77
2021/06/17 07:33:00;;;;;;;5.93;2.77;;;;;;;22.42;74.72;100554.53;126749;1093;104255;-78
2021/06/17 07:35:32;;;;;;;4.80;3.07;;;;;;;22.58;74.94;100552.57;126739;1089;104142;-79
2021/06/17 07:38:19;;;;;;;6.20;2.90;;;;;;;22.77;74.73;100545.17;126754;1093;104199;-82
2021/06/17 07:40:48;;;;;;;3.13;2.60;;;;;;;22.94;74.57;100545.81;126686;1093;104197;-79
2021/06/17 07:43:21;;;;;;;8.77;3.13;;;;;;;23.10;73.71;100549.17;126739;1089;104130;-78
2021/06/17 07:45:53;;;;;;;4.20;2.63;;;;;;;23.30;73.72;100530.12;126688;1093;104299;-81
2021/06/17 07:48:27;;;;;;;5.90;2.73;;;;;;;23.47;74.15;100543.23;126751;1089;104151;-80
2021/06/17 07:51:00;;;;;;;4.90;2.83;;;;;;;23.65;72.91;100535.78;126799;1089;104326;-79
2021/06/17 07:53:31;;;;;;;7.10;2.33;;;;;;;23.72;72.74;100536.55;126835;1089;104200;-80
2021/06/17 07:56:04;;;;;;;5.93;2.40;;;;;;;23.86;71.23;100545.27;126809;1089;104265;-78
2021/06/17 07:58:38;;;;;;;6.03;2.93;;;;;;;23.88;71.69;100531.84;126909;1089;104248;-79
2021/06/17 08:01:18;;;;;;;4.07;2.33;;;;;;;23.93;71.19;100533.50;126956;1089;104146;-78
2021/06/17 08:04:07;;;;;;;9.60;2.90;;;;;;;24.07;70.61;100538.60;126792;1089;104107;-78
2021/06/17 08:06:42;;;;;;;4.47;2.50;;;;;;;24.13;69.72;100542.97;126782;1089;104147;-78
2021/06/17 08:09:21;;;;;;;3.93;2.47;;;;;;;24.24;69.21;100540.95;126721;1089;104159;-79
2021/06/17 08:11:53;;;;;;;3.73;2.40;;;;;;;24.12;68.93;100535.83;126937;1089;104155;-77
2021/06/17 08:14:31;;;;;;;2.90;2.00;;;;;;;24.24;69.31;100543.63;126801;1089;104135;-78
2021/06/17 08:17:05;;;;;;;2.77;2.30;;;;;;;24.40;69.51;100538.83;126772;1089;104271;-77
2021/06/17 08:19:44;;;;;;;5.07;2.90;;;;;;;24.50;68.48;100540.41;127074;1089;104133;-81
2021/06/17 08:22:57;;;;;;;2.93;2.50;;;;;;;24.69;68.51;100543.61;127372;1086;104202;-81
2021/06/17 08:25:46;;;;;;;3.73;2.60;;;;;;;24.87;68.88;100536.05;127114;1086;104171;-83
2021/06/17 08:28:23;;;;;;;4.00;2.63;;;;;;;24.98;68.23;100538.49;127022;1087;103957;-81
2021/06/17 08:31:27;;;;;;;;;;;;;;;;;;;;;
2021/06/17 08:34:18;;;;;;;4.93;2.40;;;;;;;25.14;67.06;100547.09;127151;1086;104183;-80
2021/06/17 08:36:52;;;;;;;3.27;2.13;;;;;;;25.18;66.79;100540.71;127375;1086;104264;-79
2021/06/17 08:39:31;;;;;;;5.93;2.60;;;;;;;25.14;65.79;100542.59;127370;1086;104133;-78
2021/06/17 08:42:07;;;;;;;3.23;2.40;;;;;;;25.18;66.26;100551.45;126891;1086;104326;-80
2021/06/17 08:44:37;;;;;;;5.45;2.67;;;;;;;25.16;65.39;100550.61;126838;1086;104648;-81
2021/06/17 08:47:14;;;;;;;5.00;2.40;;;;;;;25.14;65.89;100557.83;126984;1087;104132;-80
2021/06/17 08:49:51;;;;;;;7.50;2.50;;;;;;;25.09;65.50;100552.57;126930;1089;103014;-81
2021/06/17 08:52:47;;;;;;;6.07;2.50;;;;;;;25.09;64.96;100547.20;126803;1089;104388;-81
2021/06/17 08:55:38;;;;;;;4.27;2.33;;;;;;;25.07;64.41;100549.02;126893;1089;104126;-81
2021/06/17 08:58:28;;;;;;;5.10;2.27;;;;;;;25.11;64.88;100543.54;126592;1089;104133;-82
2021/06/17 09:01:23;;;;;;;3.37;2.30;;;;;;;25.17;64.40;100538.97;126604;1093;104146;-79
2021/06/17 09:04:23;;;;;;;5.10;2.50;;;;;;;25.12;64.05;100537.27;126669;1089;104136;-80
2021/06/17 09:07:10;;;;;;;4.23;2.60;;;;;;;25.03;62.53;100548.22;126678;1089;104213;-81
2021/06/17 09:09:53;;;;;;;3.07;2.40;;;;;;;24.99;63.18;100546.52;126586;1090;104305;-81
2021/06/17 09:12:24;;;;;;;3.57;2.50;;;;;;;24.99;63.39;100548.32;126573;1091;104145;-81
2021/06/17 09:14:57;;;;;;;2.80;2.40;;;;;;;25.00;63.26;100556.34;126819;1089;104216;-81
2021/06/17 09:17:25;;;;;;;3.03;2.40;;;;;;;24.99;62.38;100573.35;126973;1089;104406;-79
2021/06/17 09:19:54;;;;;;;3.80;2.60;;;;;;;24.95;62.33;100560.94;126903;1089;104565;-79
2021/06/17 09:22:31;;;;;;;4.73;2.77;;;;;;;24.87;62.60;100568.27;126993;1089;104197;-80
2021/06/17 09:25:06;;;;;;;3.80;2.70;;;;;;;24.83;62.60;100570.14;126863;1089;102527;-80
2021/06/17 09:27:39;;;;;;;5.43;2.80;;;;;;;24.79;62.45;100572.92;126971;1089;104136;-82
2021/06/17 09:30:22;;;;;;;4.57;2.50;;;;;;;24.73;62.12;100573.96;126942;1087;104312;-80
2021/06/17 09:33:00;;;;;;;3.30;2.50;;;;;;;24.70;62.04;100587.45;126985;1089;104159;-80
2021/06/17 09:35:37;;;;;;;3.40;2.73;;;;;;;24.64;62.04;100596.48;127035;1089;104190;-79
2021/06/17 09:38:12;;;;;;;4.27;2.83;;;;;;;24.68;61.96;100598.20;126935;1086;104143;-79
2021/06/17 09:40:50;;;;;;;5.78;2.60;;;;;;;24.76;61.83;100603.37;127081;1089;104130;-81
2021/06/17 09:43:34;;;;;;;3.83;3.10;;;;;;;24.91;61.68;100607.55;127386;1086;104817;-80
2021/06/17 09:46:22;;;;;;;7.70;3.50;;;;;;;25.04;62.31;100609.05;127399;1086;104191;-81
2021/06/17 09:48:53;;;;;;;5.83;3.50;;;;;;;25.16;61.95;100615.05;127408;1086;104130;-80
2021/06/17 09:51:28;;;;;;;5.50;3.20;;;;;;;25.20;61.54;100606.02;127360;1086;104181;-81
2021/06/17 09:54:09;;;;;;;4.77;2.93;;;;;;;25.15;61.50;100606.13;127373;1086;104223;-81
2021/06/17 09:56:43;;;;;;;6.60;3.03;;;;;;;25.09;61.63;100607.14;127386;1086;104177;-79
2021/06/17 09:59:32;;;;;;;3.15;2.67;;;;;;;25.09;61.37;100603.58;127410;1086;104129;-79
2021/06/17 10:02:04;;;;;;;4.70;2.90;;;;;;;25.03;61.48;100591.17;127090;1086;104656;-79
2021/06/17 10:04:38;;;;;;;5.62;2.83;;;;;;;24.99;61.30;100594.83;127398;1086;104120;-80
2021/06/17 10:07:11;;;;;;;4.60;3.00;;;;;;;24.97;61.36;100596.67;127056;1085;104152;-80
2021/06/17 10:09:41;;;;;;;8.43;3.00;;;;;;;25.01;61.02;100598.38;127004;1086;104146;-79
2021/06/17 10:12:12;;;;;;;4.00;2.80;;;;;;;25.04;61.09;100602.77;127289;1086;104175;-80
2021/06/17 10:14:42;;;;;;;4.77;2.87;;;;;;;25.09;61.18;100595.52;127434;1086;104142;-80
2021/06/17 10:17:24;;;;;;;4.13;2.93;;;;;;;25.20;61.17;100592.59;127258;1086;104666;-81
2021/06/17 10:19:57;;;;;;;6.33;3.20;;;;;;;25.30;61.26;100592.34;127014;1089;104634;-79
2021/06/17 10:22:36;;;;;;;3.43;2.90;;;;;;;25.37;61.01;100582.36;127253;1086;104617;-81
2021/06/17 10:25:23;;;;;;;4.63;3.00;;;;;;;25.47;60.82;100570.45;127257;1086;104283;-80
2021/06/17 10:27:57;;;;;;;8.87;3.27;;;;;;;25.54;60.83;100571.20;127351;1086;104191;-80
2021/06/17 10:30:42;;;;;;;13.80;3.20;;;;;;;25.50;60.33;100569.50;127315;1086;104142;-79
2021/06/17 10:33:29;;;;;;;3.40;3.03;;;;;;;25.43;60.30;100560.72;127328;1086;104273;-81
2021/06/17 10:36:25;;;;;;;7.57;3.00;;;;;;;25.49;60.74;100559.66;127065;1086;104636;-80
2021/06/17 10:39:19;;;;;;;6.63;3.33;;;;;;;25.66;60.33;100553.86;127315;1086;104420;-80
2021/06/17 10:42:14;;;;;;;6.63;3.40;;;;;;;25.74;60.03;100550.98;127245;1086;105457;-79
2021/06/17 10:44:52;;;;;;;6.67;3.20;;;;;;;25.82;60.29;100557.92;127367;1086;104569;-78
2021/06/17 10:47:51;;;;;;;6.90;3.20;;;;;;;25.81;59.78;100557.97;126982;1086;104162;-78
2021/06/17 10:50:22;;;;;;;5.90;3.10;;;;;;;25.85;60.23;100548.87;127330;1086;104127;-79
2021/06/17 10:53:16;;;;;;;7.33;3.30;;;;;;;25.91;59.75;100553.22;127254;1086;104148;-80
2021/06/17 10:55:59;;;;;;;6.40;3.10;;;;;;;25.98;60.38;100550.36;127372;1086;104133;-79
2021/06/17 10:58:57;;;;;;;4.05;3.42;;;;;;;26.01;59.88;100547.58;127436;1086;104166;-77
2021/06/17 11:01:39;;;;;;;5.80;3.37;;;;;;;25.93;59.25;100549.58;127379;1086;104130;-76
2021/06/17 11:04:22;;;;;;;8.60;3.10;;;;;;;25.92;59.68;100544.24;127341;1086;104232;-77
2021/06/17 11:07:16;;;;;;;5.00;3.20;;;;;;;25.98;59.33;100546.80;127378;1086;104392;-79
2021/06/17 11:10:03;;;;;;;;;;;;;;;25.87;58.64;100549.74;126950;1089;104321;-78
2021/06/17 11:12:57;;;;;;;4.55;3.05;;;;;;;25.75;59.29;100556.31;126918;1089;104324;-78
2021/06/17 11:15:39;;;;;;;3.83;3.10;;;;;;;25.56;59.77;100558.60;127011;1086;104155;-79
2021/06/17 11:18:11;;;;;;;4.67;3.40;;;;;;;25.42;59.99;100542.83;127026;1089;104308;-79
2021/06/17 11:20:45;;;;;;;13.97;4.20;;;;;;;25.34;59.79;100550.20;126966;1089;104335;-81
2021/06/17 11:23:21;;;;;;;7.13;3.60;;;;;;;25.26;60.08;100544.12;126922;1087;104283;-82
2021/06/17 11:25:57;;;;;;;9.50;3.77;;;;;;;25.15;60.09;100543.47;126892;1089;104150;-78
2021/06/17 11:28:50;;;;;;;8.50;3.83;;;;;;;25.02;59.64;100542.88;126898;1089;104148;-80
2021/06/17 11:31:37;;;;;;;5.37;3.80;;;;;;;24.84;60.09;100547.77;126924;1089;104133;-78
2021/06/17 11:34:07;;;;;;;6.80;3.50;;;;;;;24.57;60.11;100543.88;126872;1086;104267;-79
2021/06/17 11:36:51;;;;;;;5.63;3.57;;;;;;;24.37;60.60;100536.21;126898;1089;104296;-79
2021/06/17 11:39:29;;;;;;;9.33;4.00;;;;;;;24.19;60.99;100538.36;126932;1087;104627;-80
2021/06/17 11:42:03;;;;;;;7.27;4.00;;;;;;;24.00;60.78;100540.53;127263;1086;104502;-80
2021/06/17 11:44:33;;;;;;;6.03;3.80;;;;;;;23.83;61.39;100539.94;127339;1086;104230;-80
2021/06/17 11:47:08;;;;;;;6.93;4.10;;;;;;;23.61;61.31;100540.31;127361;1086;104334;-78
2021/06/17 11:49:40;;;;;;;6.70;3.87;;;;;;;23.39;61.45;100549.61;127445;1085;104254;-79
2021/06/17 11:52:11;;;;;;;5.23;3.97;;;;;;;23.19;62.17;100542.80;127054;1086;105730;-80
2021/06/17 11:54:51;;;;;;;6.40;4.03;;;;;;;23.06;62.26;100546.53;127036;1087;104696;-80
2021/06/17 11:57:28;;;;;;;7.17;4.03;;;;;;;22.95;62.62;100538.66;127414;1085;104195;-79
2021/06/17 12:00:02;;;;;;;8.20;4.53;;;;;;;22.87;62.89;100530.74;127052;1086;104676;-79
2021/06/17 12:02:38;;;;;;;7.47;4.40;;;;;;;22.84;62.42;100525.44;127319;1086;104206;-79
2021/06/17 12:05:11;;;;;;;10.10;4.23;;;;;;;22.81;63.34;100525.48;127392;1086;110853;-79
2021/06/17 12:07:45;;;;;;;6.70;4.33;;;;;;;22.78;63.15;100525.52;127056;1086;104168;-77
2021/06/17 12:10:17;;;;;;;;;;;;;;;22.76;63.96;100516.64;127397;1086;104162;-80
2021/06/17 12:12:58;;;;;;;7.47;4.40;;;;;;;22.75;64.09;100514.87;127316;1086;104130;-79
2021/06/17 12:15:39;;;;;;;7.63;4.20;;;;;;;22.74;64.05;100513.12;127338;1086;104162;-79
2021/06/17 12:18:19;;;;;;;7.90;4.43;;;;;;;22.73;64.30;100514.89;127382;1086;104191;-79
2021/06/17 12:20:51;;;;;;;9.50;4.97;;;;;;;22.71;64.13;100522.06;127400;1086;104168;-80
2021/06/17 12:23:34;;;;;;;;;;;;;;;;;;;;;
2021/06/17 12:26:07;;;;;;;7.37;4.60;;;;;;;22.64;64.58;100539.12;127049;1086;104282;-79
2021/06/17 12:28:52;;;;;;;7.03;4.30;;;;;;;22.61;64.95;100537.36;127293;1086;104239;-78
2021/06/17 12:31:33;;;;;;;6.50;4.10;;;;;;;22.60;65.24;100535.58;126921;1086;104184;-78
2021/06/17 12:34:14;;;;;;;9.67;4.67;;;;;;;22.60;65.09;100538.25;127237;1086;104324;-78
2021/06/17 12:37:00;;;;;;;6.73;4.47;;;;;;;22.61;65.28;100540.03;127424;1085;104583;-78
2021/06/17 12:39:31;;;;;;;11.97;4.87;;;;;;;22.61;65.20;100532.02;126977;1086;104156;-77
2021/06/17 12:42:07;;;;;;;10.07;4.30;;;;;;;22.64;65.06;100527.52;127356;1085;104153;-78
2021/06/17 12:44:43;;;;;;;9.17;4.90;;;;;;;22.63;65.37;100533.79;126948;1089;104140;-77
2021/06/17 12:47:18;;;;;;;9.47;4.90;;;;;;;22.60;65.68;100527.55;127301;1086;104152;-78
2021/06/17 12:52:39;;;;;;;7.57;4.63;;;;;;;22.56;65.97;100525.84;126949;1086;104309;-79
2021/06/17 12:55:10;;;;;;;11.30;5.47;;;;;;;22.57;66.20;100524.92;126953;1087;104150;-79
2021/06/17 12:57:56;;;;;;;9.38;5.60;;;;;;;22.56;66.19;100519.59;127308;1086;104213;-80
2021/06/17 13:00:28;;;;;;;14.20;6.70;;;;;;;22.52;66.66;100505.39;127396;1086;104120;-79
2021/06/17 13:02:59;;;;;;;14.90;7.13;;;;;;;22.51;66.53;100511.63;127281;1086;104245;-79
2021/06/17 13:05:29;;;;;;;11.00;5.73;;;;;;;22.49;66.61;100507.23;127326;1086;104405;-79
2021/06/17 13:08:07;;;;;;;10.77;5.50;;;;;;;22.50;67.11;100504.54;127391;1086;104133;-80
2021/06/17 13:10:57;;;;;;;11.27;5.80;;;;;;;22.48;67.05;100498.30;127332;1086;104181;-79
2021/06/17 13:13:31;;;;;;;10.23;5.47;;;;;;;22.47;67.27;100496.56;127374;1085;104263;-79
2021/06/17 13:16:04;;;;;;;9.83;5.57;;;;;;;22.45;67.40;100490.33;127407;1086;104318;-79
2021/06/17 13:18:36;;;;;;;11.37;5.10;;;;;;;22.46;67.29;100493.91;127341;1086;105012;-79
2021/06/17 13:21:15;;;;;;;11.47;5.70;;;;;;;22.47;67.23;100491.21;127368;1086;104129;-80
2021/06/17 13:23:48;;;;;;;11.87;5.33;;;;;;;22.49;67.79;100497.41;127356;1086;104280;-79
2021/06/17 13:26:21;;;;;;;10.75;5.55;;;;;;;22.51;67.54;100489.37;127322;1086;104229;-80
2021/06/17 13:28:59;;;;;;;10.63;5.10;;;;;;;22.52;67.44;100483.12;127088;1086;104206;-80
2021/06/17 13:31:32;;;;;;;10.10;5.33;;;;;;;22.53;67.80;100487.55;127336;1086;104357;-77
2021/06/17 13:34:09;;;;;;;8.50;4.87;;;;;;;22.54;68.05;100484.85;127385;1086;104216;-79
2021/06/17 13:36:41;;;;;;;8.00;4.90;;;;;;;22.55;67.96;100478.61;126995;1086;104010;-77
2021/06/17 13:39:15;;;;;;;7.47;4.60;;;;;;;22.54;67.87;100484.85;127399;1086;104198;-78
2021/06/17 13:41:49;;;;;;;6.93;4.87;;;;;;;22.53;68.15;100482.20;127281;1086;104133;-78
2021/06/17 13:44:22;;;;;;;7.23;4.60;;;;;;;22.50;68.16;100476.89;127437;1087;104146;-78
2021/06/17 13:46:54;;;;;;;10.82;4.87;;;;;;;22.48;67.88;100478.72;127366;1086;104218;-78
2021/06/17 13:49:26;;;;;;;7.47;4.57;;;;;;;22.46;68.41;100477.86;127375;1086;104238;-80
2021/06/17 13:52:00;;;;;;;6.87;4.47;;;;;;;22.48;68.48;100484.06;127385;1086;104197;-78
2021/06/17 13:54:30;;;;;;;6.57;4.73;;;;;;;22.48;68.45;100476.05;127379;1086;104260;-77
2021/06/17 13:57:00;;;;;;;10.80;4.93;;;;;;;22.50;68.48;100475.13;127334;1086;104139;-77
2021/06/17 13:59:38;;;;;;;12.37;5.27;;;;;;;22.53;68.65;100474.18;127337;1086;104229;-78
2021/06/17 14:02:09;;;;;;;8.13;5.03;;;;;;;22.54;68.72;100475.96;127291;1086;104204;-78
2021/06/17 14:04:44;;;;;;;10.47;5.20;;;;;;;22.53;68.24;100469.73;126946;1086;104191;-78
2021/06/17 14:07:13;;;;;;;13.10;5.47;;;;;;;22.54;68.65;100460.79;127314;1086;105394;-78
2021/06/17 14:09:43;;;;;;;13.00;5.60;;;;;;;22.54;69.23;100474.16;127163;1086;104302;-78
2021/06/17 14:12:14;;;;;;;12.33;5.93;;;;;;;22.57;68.66;100479.46;127287;1086;104318;-78
2021/06/17 14:14:49;;;;;;;14.07;5.97;;;;;;;22.60;68.89;100474.08;127288;1086;104165;-80
2021/06/17 14:17:20;;;;;;;16.17;6.50;;;;;;;22.63;69.00;100478.50;127346;1085;104149;-79
2021/06/17 14:19:54;;;;;;;17.93;6.13;;;;;;;22.65;69.00;100475.81;126975;1086;104215;-79
2021/06/17 14:22:26;;;;;;;13.37;5.70;;;;;;;22.66;69.70;100470.44;126938;1086;104158;-79
2021/06/17 14:25:00;;;;;;;11.80;5.70;;;;;;;22.66;69.26;100475.78;127098;1086;104164;-80
2021/06/17 14:27:31;;;;;;;10.80;5.63;;;;;;;22.67;69.91;100469.51;127370;1085;104218;-81
2021/06/17 14:30:03;;;;;;;12.27;5.80;;;;;;;22.66;69.71;100453.48;127364;1086;104241;-81
2021/06/17 14:32:33;;;;;;;13.75;5.83;;;;;;;22.66;69.82;100450.81;127297;1086;104187;-80
2021/06/17 14:35:02;;;;;;;9.77;5.70;;;;;;;22.65;70.04;100457.96;127183;1086;104362;-80
2021/06/17 14:37:35;;;;;;;12.43;6.20;;;;;;;22.64;69.85;100461.56;127279;1086;102583;-79
2021/06/17 14:40:05;;;;;;;12.73;6.20;;;;;;;22.66;70.38;100456.16;127339;1086;104646;-78
2021/06/17 14:42:35;;;;;;;18.60;6.83;;;;;;;22.70;70.22;100448.07;127312;1086;104261;-78
2021/06/17 14:45:05;;;;;;;16.50;6.07;;;;;;;22.76;70.10;100456.00;127151;1085;104223;-78
2021/06/17 14:47:36;;;;;;;15.43;5.57;;;;;;;22.83;70.36;100442.53;127140;1086;104239;-80
2021/06/17 14:50:06;;;;;;;12.77;6.33;;;;;;;22.87;70.33;100439.78;127230;1086;101924;-78
2021/06/17 14:52:34;;;;;;;13.27;6.50;;;;;;;22.87;70.22;100442.45;127275;1086;104127;-78
2021/06/17 14:55:03;;;;;;;11.97;6.20;;;;;;;22.86;70.30;100440.72;127306;1086;104299;-76
2021/06/17 14:57:31;;;;;;;12.57;5.80;;;;;;;22.82;70.24;100438.98;127260;1086;104266;-76
2021/06/17 14:59:59;;;;;;;13.17;5.50;;;;;;;22.79;70.30;100447.06;127283;1086;104244;-76
2021/06/17 15:02:28;;;;;;;13.17;5.57;;;;;;;22.73;70.53;100450.70;127255;1086;104133;-77
2021/06/17 15:04:56;;;;;;;12.50;6.00;;;;;;;22.68;70.86;100449.02;127323;1086;104617;-77
2021/06/17 15:07:24;;;;;;;13.33;5.60;;;;;;;22.61;70.42;100454.46;127277;1086;104290;-76
2021/06/17 15:09:53;;;;;;;14.10;6.07;;;;;;;22.48;70.93;100454.66;127258;1086;104161;-76
2021/06/17 15:12:21;;;;;;;12.00;5.93;;;;;;;22.31;71.39;100453.09;126992;1086;104176;-77
2021/06/17 15:14:50;;;;;;;10.63;5.70;;;;;;;22.15;71.23;100449.70;127387;1086;104142;-77
2021/06/17 15:17:18;;;;;;;11.03;5.97;;;;;;;21.99;71.41;100448.14;127329;1086;104209;-78
2021/06/17 15:19:46;;;;;;;15.80;6.60;;;;;;;21.84;71.65;100441.19;127316;1086;104184;-77
2021/06/17 15:22:16;;;;;;;14.63;6.37;;;;;;;21.69;71.75;100431.55;127271;1086;104283;-77
2021/06/17 15:24:44;;;;;;;14.63;6.43;;;;;;;21.52;71.61;100432.63;127251;1086;104209;-78
2021/06/17 15:27:12;;;;;;;14.53;6.17;;;;;;;21.43;72.42;100435.36;127260;1086;104225;-77
2021/06/17 15:29:41;;;;;;;13.87;6.53;;;;;;;21.34;72.68;100462.14;127174;1086;104172;-77
2021/06/17 15:32:09;;;;;;;15.93;6.83;;;;;;;21.19;73.61;100488.06;127239;1086;104175;-78
2021/06/17 15:34:37;;;;;;;13.27;6.27;;;;;;;21.05;73.40;100483.72;127275;1086;104289;-77
2021/06/17 15:37:07;;;;;;;10.33;5.50;;;;;;;20.85;74.70;100491.86;127213;1086;104127;-78
2021/06/17 15:39:37;;;;;;;11.27;5.57;;;;;;;20.53;75.65;100499.13;126840;1089;104201;-78
2021/06/17 15:42:07;;;;;;;10.67;4.93;;;;;;;20.28;74.88;100504.57;126931;1086;104155;-79
2021/06/17 15:44:35;;;;;;;9.47;4.70;;;;;;;20.11;74.59;100523.28;126990;1086;104296;-79
2021/06/17 15:47:06;;;;;;;11.10;4.27;;;;;;;20.01;75.06;100524.22;127017;1086;104384;-79
2021/06/17 15:49:38;;;;;;;7.30;4.07;;;;;;;19.88;76.94;100538.44;126955;1086;104146;-79
2021/06/17 15:52:08;;;;;;;6.25;4.10;;;;;;;19.73;76.16;100540.21;127011;1086;104188;-78
2021/06/17 15:54:39;;;;;;;6.97;3.77;;;;;;;19.63;75.58;100535.77;126955;1089;104219;-77
2021/06/17 15:57:08;;;;;;;10.07;5.27;;;;;;;19.63;75.56;100553.53;127007;1090;104181;-78
2021/06/17 15:59:38;;;;;;;9.73;5.70;;;;;;;19.64;75.69;100549.99;126941;1090;104171;-78
2021/06/17 16:02:07;;;;;;;10.93;5.67;;;;;;;19.64;75.30;100550.87;126979;1089;104283;-79
2021/06/17 16:04:35;;;;;;;12.80;6.10;;;;;;;19.59;75.95;100555.31;126942;1089;104132;-79
2021/06/17 16:07:30;;;;;;;13.37;6.87;;;;;;;19.59;75.58;100542.01;126973;1089;104143;-79
2021/06/17 16:10:32;;;;;;;8.60;5.00;;;;;;;19.56;75.84;100536.69;126929;1090;104630;-78
2021/06/17 16:18:48;;;;;;;15.47;9.00;;;;;;;19.50;76.55;100545.55;127384;1086;104340;-78
2021/06/17 16:21:16;;;;;;;18.33;10.60;;;;;;;19.51;76.33;100547.33;127086;1086;104261;-77
2021/06/17 16:23:44;;;;;;;19.27;10.77;;;;;;;19.56;76.14;100542.01;127374;1086;104146;-76
2021/06/17 16:26:12;;;;;;;16.93;9.83;;;;;;;19.58;75.58;100540.22;127079;1086;104523;-78
2021/06/17 16:28:39;;;;;;;19.97;10.70;;;;;;;19.58;75.52;100530.45;127351;1086;104295;-79
2021/06/17 16:31:07;;;;;;;18.23;10.97;;;;;;;19.60;75.77;100535.77;127425;1086;104170;-78
2021/06/17 16:33:35;;;;;;;18.17;10.97;;;;;;;19.66;75.70;100527.78;127103;1089;104270;-79
2021/06/17 16:36:11;;;;;;;21.13;10.83;;;;;;;19.68;76.58;100531.35;127477;1086;104215;-79
2021/06/17 16:38:42;;;;;;;16.20;9.63;;;;;;;19.66;75.72;100524.25;126958;1086;104168;-77
2021/06/17 16:41:09;;;;;;;18.23;10.00;;;;;;;19.64;76.40;100523.38;126951;1086;104325;-78
2021/06/17 16:43:38;;;;;;;15.87;8.70;;;;;;;19.60;76.39;100524.25;127325;1086;104136;-78
2021/06/17 16:54:11;;;;;;;12.33;7.50;;;;;;;19.83;75.81;100519.80;125261;1102;106034;-79
2021/06/17 16:56:44;;;;;;;21.20;10.90;;;;;;;19.79;76.46;100526.05;125227;1102;104143;-79
2021/06/17 16:59:15;;;;;;;22.93;11.67;;;;;;;19.80;77.31;100526.92;125166;1102;104140;-77
2021/06/17 17:01:48;;;;;;;23.10;11.60;;;;;;;19.75;77.04;100526.90;125201;1102;104140;-78
2021/06/17 17:04:18;;;;;;;;;;;;;;;19.71;77.18;100530.44;125047;1102;104175;-78
2021/06/17 17:06:48;;;;;;;23.10;11.67;;;;;;;19.64;76.71;100534.89;124902;1102;104179;-78
2021/06/17 17:09:19;;;;;;;24.07;12.13;;;;;;;19.63;77.27;100541.09;124915;1104;104194;-78